Time;durP1;ratioP1;P1;durP2;ratioP2;P2;SDS_P1;SDS_P2;PMS_P1;PMS_P2;Temp;Humidity;BMP_temperature;BMP_pressure;BME280_temperature;BME280_humidity;BME280_pressure;Samples;Min_cycle;Max_cycle;Signal;HPM_P1;HPM_P2
2022/01/28 00:07:45;;;;;;;122.47;72.22;;;6.50;99.90;;;;;;5085432;28;20397;-84
2022/01/28 00:13:52;;;;;;;112.38;69.00;;;6.50;99.90;;;;;;5029213;28;20475;-85
2022/01/28 01:01:29;;;;;;;;;;;;;;;;;;;;;
2022/01/28 01:11:48;;;;;;;192.52;105.55;;;6.60;99.90;;;;;;4801657;29;20054;-84
2022/01/28 01:25:25;;;;;;;307.65;152.00;;;6.50;99.90;;;;;;4894346;29;20147;-84
2022/01/28 01:35:35;;;;;;;118.90;67.88;;;6.60;99.90;;;;;;4968744;28;20033;-84
2022/01/28 01:38:24;;;;;;;119.85;67.68;;;6.50;99.90;;;;;;4942245;28;20043;-84
2022/01/28 01:41:54;;;;;;;;;;;;;;;;;;;;;
2022/01/28 02:36:24;;;;;;;118.22;68.68;;;6.40;99.90;;;;;;5019898;28;20537;-84
2022/01/28 03:07:28;;;;;;;122.50;69.95;;;6.10;99.90;;;;;;4987934;28;20045;-84
2022/01/28 03:17:47;;;;;;;133.48;75.15;;;5.90;99.90;;;;;;4991060;28;20544;-85
2022/01/28 03:34:48;;;;;;;129.15;76.47;;;5.60;99.90;;;;;;4964769;28;20047;-84
2022/01/28 03:47:37;;;;;;;135.48;74.90;;;5.70;99.90;;;;;;4979603;28;20050;-85
2022/01/28 03:57:10;;;;;;;134.23;78.97;;;5.70;99.90;;;;;;4979458;28;20073;-85
2022/01/28 04:00:33;;;;;;;132.50;80.53;;;5.80;99.90;;;;;;4991293;28;20684;-85
2022/01/28 04:35:51;;;;;;;146.77;85.60;;;5.70;99.90;;;;;;4980079;28;20034;-84
2022/01/28 05:15:49;;;;;;;140.00;82.72;;;6.30;99.90;;;;;;4949704;28;20182;-85
2022/01/28 05:31:22;;;;;;;135.13;80.10;;;5.90;99.90;;;;;;4877377;29;20083;-86
2022/01/28 05:34:00;;;;;;;127.78;78.47;;;5.90;99.90;;;;;;4927940;28;20401;-85
2022/01/28 05:36:29;;;;;;;134.35;78.40;;;5.80;99.90;;;;;;4987907;28;20034;-85
2022/01/28 05:42:30;;;;;;;150.05;81.97;;;5.70;99.90;;;;;;5024966;28;20213;-85
2022/01/28 05:45:30;;;;;;;149.73;87.18;;;5.60;99.90;;;;;;5063204;28;20043;-85
2022/01/28 05:48:28;;;;;;;147.73;84.65;;;5.50;99.90;;;;;;5067164;28;20033;-85
2022/01/28 05:51:18;;;;;;;136.55;81.22;;;5.50;99.90;;;;;;5060723;28;20048;-84
2022/01/28 05:54:36;;;;;;;139.27;83.30;;;5.50;99.90;;;;;;5054777;28;20035;-84
2022/01/28 05:57:24;;;;;;;148.07;82.25;;;5.60;99.90;;;;;;4964101;28;20066;-85
2022/01/28 06:00:32;;;;;;;;;;;;;;;;;;;;;
2022/01/28 06:07:00;;;;;;;140.35;78.22;;;5.50;99.90;;;;;;4929841;29;20082;-85
2022/01/28 06:10:11;;;;;;;;;;;;;;;;;;;;;
2022/01/28 06:12:47;;;;;;;145.38;79.15;;;5.50;99.90;;;;;;4980427;28;20031;-84
2022/01/28 06:15:32;;;;;;;156.63;83.95;;;5.50;99.90;;;;;;5082597;28;20051;-85
2022/01/28 06:18:00;;;;;;;157.90;85.82;;;5.40;99.90;;;;;;5088654;28;20024;-85
2022/01/28 06:24:07;;;;;;;147.63;85.60;;;5.10;99.90;;;;;;5100158;28;20024;-84
2022/01/28 06:27:11;;;;;;;165.57;86.32;;;4.90;99.90;;;;;;5104879;28;20040;-84
2022/01/28 06:30:22;;;;;;;144.40;81.15;;;4.70;99.90;;;;;;5081394;28;20084;-84
2022/01/28 06:33:18;;;;;;;144.27;80.68;;;4.50;99.90;;;;;;5108208;28;20430;-83
2022/01/28 06:36:10;;;;;;;145.90;82.13;;;4.40;99.90;;;;;;5108548;28;20029;-85
2022/01/28 06:38:36;;;;;;;149.50;83.93;;;4.30;99.90;;;;;;5110046;28;20050;-87
2022/01/28 06:41:18;;;;;;;158.93;85.75;;;4.20;99.90;;;;;;5104580;27;20027;-86
2022/01/28 06:43:47;;;;;;;160.63;87.63;;;4.10;99.90;;;;;;5101415;27;20043;-85
2022/01/28 06:46:13;;;;;;;158.52;88.20;;;4.10;99.90;;;;;;5107113;28;20028;-86
2022/01/28 06:48:42;;;;;;;167.05;92.20;;;4.00;99.90;;;;;;5110212;28;20045;-86
2022/01/28 06:51:08;;;;;;;178.30;97.15;;;3.90;99.90;;;;;;5104223;28;20036;-86
2022/01/28 06:53:56;;;;;;;169.85;93.45;;;3.90;99.90;;;;;;5109363;28;20028;-86
2022/01/28 06:56:22;;;;;;;177.13;93.18;;;3.90;99.90;;;;;;5101559;28;20039;-85
2022/01/28 06:58:59;;;;;;;174.80;95.13;;;3.90;99.90;;;;;;5099021;28;20364;-86
2022/01/28 07:01:29;;;;;;;172.60;90.57;;;3.90;99.90;;;;;;5089393;28;20026;-85
2022/01/28 07:04:00;;;;;;;164.15;92.30;;;3.90;99.90;;;;;;5099378;28;20055;-86
2022/01/28 07:06:37;;;;;;;164.75;94.93;;;4.00;99.90;;;;;;5104473;28;20019;-84
2022/01/28 07:09:03;;;;;;;175.18;102.88;;;4.00;99.90;;;;;;5105847;28;20035;-87
2022/01/28 07:11:31;;;;;;;172.35;95.03;;;4.00;99.90;;;;;;5100300;28;20397;-86
2022/01/28 07:13:57;;;;;;;194.75;100.80;;;4.00;99.90;;;;;;5106163;28;20043;-86
2022/01/28 07:16:30;;;;;;;183.00;99.35;;;4.00;99.90;;;;;;5101277;27;20079;-86
2022/01/28 07:19:08;;;;;;;158.73;91.50;;;4.00;99.90;;;;;;5097789;28;20020;-83
2022/01/28 07:21:34;;;;;;;167.48;92.70;;;4.00;99.90;;;;;;5108428;28;20024;-83
2022/01/28 07:24:00;;;;;;;165.85;89.85;;;4.10;99.90;;;;;;5079276;28;20496;-85
2022/01/28 07:26:26;;;;;;;170.95;95.68;;;4.10;99.90;;;;;;5089129;28;20020;-85
2022/01/28 07:28:55;;;;;;;175.02;94.63;;;4.20;99.90;;;;;;5106648;28;20028;-85
2022/01/28 07:31:21;;;;;;;170.93;96.75;;;4.30;99.90;;;;;;5104401;28;20043;-85
2022/01/28 07:33:58;;;;;;;161.32;91.60;;;4.40;99.90;;;;;;5107125;28;20024;-85
2022/01/28 07:36:24;;;;;;;164.65;92.65;;;4.40;99.90;;;;;;5091261;28;20042;-86
2022/01/28 07:38:50;;;;;;;240.25;123.22;;;4.60;99.90;;;;;;5109451;28;20028;-87
2022/01/28 07:41:27;;;;;;;228.85;116.07;;;4.70;99.90;;;;;;5103649;28;20032;-86
2022/01/28 07:43:53;;;;;;;187.57;99.53;;;4.80;99.90;;;;;;5109058;28;20106;-86
2022/01/28 07:46:19;;;;;;;175.25;97.97;;;4.90;99.90;;;;;;5105685;28;20024;-85
2022/01/28 07:48:45;;;;;;;157.02;91.65;;;5.00;99.90;;;;;;5100517;28;20081;-87
2022/01/28 07:51:11;;;;;;;160.90;90.88;;;5.00;99.90;;;;;;5101436;28;20039;-87
2022/01/28 07:53:37;;;;;;;175.48;97.25;;;5.10;99.90;;;;;;5097560;28;20032;-86
2022/01/28 07:56:03;;;;;;;165.82;95.47;;;5.20;99.90;;;;;;5105847;28;20051;-86
2022/01/28 07:58:49;;;;;;;155.25;87.05;;;5.20;99.90;;;;;;5107791;28;20072;-88
2022/01/28 08:01:15;;;;;;;137.45;81.75;;;5.30;99.90;;;;;;5107119;28;20023;-92
2022/01/28 08:04:04;;;;;;;130.98;77.25;;;5.40;99.90;;;;;;5086022;28;20129;-93
2022/01/28 08:06:30;;;;;;;129.52;75.97;;;5.40;99.90;;;;;;5082305;28;20020;-86
2022/01/28 08:08:59;;;;;;;136.48;78.32;;;5.50;99.90;;;;;;5109897;28;20085;-85
2022/01/28 08:11:28;;;;;;;137.57;78.82;;;5.50;99.90;;;;;;5106374;28;20024;-84
2022/01/28 08:13:55;;;;;;;141.95;84.22;;;5.60;99.90;;;;;;5094292;28;20024;-86
2022/01/28 08:16:21;;;;;;;137.15;80.55;;;5.60;99.90;;;;;;5103022;28;20055;-83
2022/01/28 08:18:47;;;;;;;136.07;77.97;;;5.70;99.90;;;;;;5110115;28;20107;-85
2022/01/28 08:21:14;;;;;;;132.52;76.15;;;5.80;99.90;;;;;;5094091;28;20024;-86
2022/01/28 08:23:46;;;;;;;139.88;75.60;;;5.80;99.90;;;;;;5088146;28;20020;-86
2022/01/28 08:26:21;;;;;;;122.28;74.40;;;5.90;99.90;;;;;;5100894;28;20122;-87
2022/01/28 08:28:53;;;;;;;143.43;78.85;;;6.00;99.90;;;;;;5106859;28;20032;-86
2022/01/28 08:31:29;;;;;;;144.15;86.10;;;6.10;99.90;;;;;;5104789;28;20032;-87
2022/01/28 08:33:56;;;;;;;167.65;89.13;;;6.10;99.90;;;;;;5092081;28;20035;-86
2022/01/28 08:37:03;;;;;;;150.82;83.90;;;6.20;99.90;;;;;;5084504;28;20073;-85
2022/01/28 08:39:59;;;;;;;127.05;76.55;;;6.20;99.90;;;;;;5105824;28;20074;-85
2022/01/28 08:42:28;;;;;;;127.28;77.65;;;6.30;99.90;;;;;;5106270;27;20032;-85
2022/01/28 08:46:01;;;;;;;136.65;78.55;;;6.40;99.90;;;;;;5102431;27;20034;-86
2022/01/28 08:48:23;;;;;;;138.98;77.78;;;6.50;99.90;;;;;;5078459;27;20084;-85
2022/01/28 08:50:52;;;;;;;137.00;79.80;;;6.50;99.90;;;;;;5105637;27;20073;-86
2022/01/28 08:53:54;;;;;;;;;;;;;;;;;;;;;
2022/01/28 08:57:01;;;;;;;140.50;79.15;;;6.60;99.90;;;;;;5106286;28;20487;-86
2022/01/28 09:00:07;;;;;;;;;;;;;;;;;;;;;
2022/01/28 09:02:36;;;;;;;131.07;75.28;;;6.90;99.90;;;;;;5101567;27;20035;-85
2022/01/28 09:05:02;;;;;;;139.55;79.00;;;7.00;99.90;;;;;;5087209;28;20070;-85
2022/01/28 09:07:56;;;;;;;146.02;80.50;;;7.10;99.90;;;;;;5106521;28;20517;-85
2022/01/28 09:10:30;;;;;;;135.57;77.00;;;7.10;99.90;;;;;;5104916;28;20048;-85
2022/01/28 09:18:26;;;;;;;147.75;85.95;;;6.90;99.90;;;;;;5107306;28;20516;-87
2022/01/28 09:20:55;;;;;;;146.88;82.35;;;6.80;99.90;;;;;;5091610;28;20116;-89
2022/01/28 09:23:27;;;;;;;145.00;82.63;;;6.80;99.90;;;;;;5091726;28;20028;-92
2022/01/28 09:26:14;;;;;;;160.00;82.95;;;6.90;99.90;;;;;;5097560;28;20398;-89
2022/01/28 09:28:46;;;;;;;147.73;83.63;;;7.00;99.90;;;;;;5091168;28;20024;-89
2022/01/28 09:31:12;;;;;;;137.85;80.82;;;7.20;99.90;;;;;;5101592;28;20044;-88
2022/01/28 09:33:42;;;;;;;113.32;70.28;;;7.20;99.90;;;;;;5091455;28;20466;-85
2022/01/28 09:36:12;;;;;;;132.15;77.10;;;7.30;99.90;;;;;;5101844;28;20119;-87
2022/01/28 09:39:02;;;;;;;139.55;79.32;;;7.30;99.90;;;;;;5105964;28;20138;-86
2022/01/28 09:41:52;;;;;;;129.13;75.00;;;7.40;99.90;;;;;;5076884;28;20036;-85
2022/01/28 09:44:19;;;;;;;108.15;60.97;;;7.50;99.90;;;;;;5097028;28;20429;-86
2022/01/28 09:46:48;;;;;;;100.30;59.60;;;7.70;99.90;;;;;;5102283;28;20016;-85
2022/01/28 09:49:14;;;;;;;99.18;59.65;;;7.90;99.90;;;;;;5112208;28;20028;-85
2022/01/28 09:51:53;;;;;;;112.20;63.58;;;8.00;99.90;;;;;;5036436;28;20099;-85
2022/01/28 09:54:19;;;;;;;107.32;63.50;;;8.20;99.90;;;;;;5097947;28;20038;-85
2022/01/28 09:56:45;;;;;;;115.47;64.00;;;8.30;99.90;;;;;;5100293;28;20024;-85
2022/01/28 09:59:10;;;;;;;105.35;64.68;;;8.40;99.90;;;;;;5110782;28;20094;-85
2022/01/28 10:02:12;;;;;;;110.05;66.13;;;8.60;99.90;;;;;;5105089;28;20034;-85
2022/01/28 10:04:39;;;;;;;120.85;69.85;;;8.70;99.90;;;;;;5100865;28;20120;-85
2022/01/28 10:07:12;;;;;;;127.10;72.40;;;8.90;99.90;;;;;;5103337;28;20032;-85
2022/01/28 10:09:56;;;;;;;128.82;71.97;;;8.80;99.90;;;;;;5107954;28;20036;-84
2022/01/28 10:12:39;;;;;;;125.45;71.32;;;8.80;99.90;;;;;;5102801;28;20028;-85
2022/01/28 10:15:17;;;;;;;118.28;72.78;;;8.90;99.90;;;;;;5104714;28;20020;-86
2022/01/28 10:18:05;;;;;;;122.15;73.68;;;8.90;99.90;;;;;;5103312;28;20035;-86
2022/01/28 10:20:31;;;;;;;128.57;73.25;;;8.90;99.90;;;;;;5103923;28;20028;-85
2022/01/28 10:23:01;;;;;;;120.53;75.20;;;8.90;99.90;;;;;;5104949;28;20108;-86
2022/01/28 10:25:35;;;;;;;129.02;75.40;;;8.90;99.90;;;;;;5106304;27;20099;-86
2022/01/28 10:28:12;;;;;;;119.40;79.28;;;8.80;99.90;;;;;;5077226;28;20499;-84
2022/01/28 10:30:46;;;;;;;150.35;79.63;;;8.80;99.90;;;;;;5106353;28;20161;-85
2022/01/28 10:33:16;;;;;;;138.98;79.15;;;8.80;99.90;;;;;;5102742;28;20065;-86
2022/01/28 10:35:49;;;;;;;131.80;79.95;;;8.70;99.90;;;;;;5101662;28;20031;-86
2022/01/28 10:38:32;;;;;;;142.52;85.53;;;8.40;99.90;;;;;;5109736;28;20054;-86
2022/01/28 10:41:20;;;;;;;131.65;80.03;;;8.10;99.90;;;;;;5088088;28;20032;-86
2022/01/28 10:43:52;;;;;;;147.88;84.63;;;8.00;99.90;;;;;;5110178;28;20024;-86
2022/01/28 10:46:35;;;;;;;145.82;84.63;;;7.80;99.90;;;;;;5110464;28;20040;-85
2022/01/28 10:49:22;;;;;;;141.65;84.32;;;7.70;99.90;;;;;;5100336;27;20028;-85
2022/01/28 10:52:32;;;;;;;130.40;80.32;;;7.70;99.90;;;;;;5099607;28;20540;-85
2022/01/28 10:55:22;;;;;;;144.43;83.75;;;7.80;99.90;;;;;;5107960;27;20040;-85
2022/01/28 10:59:16;;;;;;;142.57;83.07;;;7.80;99.90;;;;;;5097697;27;20092;-86
2022/01/28 11:01:52;;;;;;;146.10;82.07;;;7.80;99.90;;;;;;5094608;28;20031;-86
2022/01/28 11:04:22;;;;;;;133.27;74.07;;;8.00;99.90;;;;;;5107473;27;20109;-85
2022/01/28 11:06:58;;;;;;;126.03;72.00;;;8.10;99.90;;;;;;5109719;28;20127;-85
2022/01/28 11:09:26;;;;;;;125.40;72.28;;;8.20;99.90;;;;;;5100738;28;20066;-85
2022/01/28 11:11:53;;;;;;;119.43;71.03;;;8.20;99.90;;;;;;5091222;28;20054;-85
2022/01/28 11:14:22;;;;;;;128.88;74.22;;;8.40;99.90;;;;;;5090777;27;20047;-85
2022/01/28 11:16:52;;;;;;;134.45;74.32;;;8.50;99.90;;;;;;5102875;27;20121;-84
2022/01/28 11:19:24;;;;;;;122.57;74.40;;;8.50;99.90;;;;;;5110780;27;20026;-85
2022/01/28 11:26:02;;;;;;;124.82;70.57;;;8.50;99.90;;;;;;4986975;28;20157;-86
2022/01/28 11:28:39;;;;;;;122.50;68.30;;;8.60;99.90;;;;;;5018147;28;20048;-93
2022/01/28 11:31:08;;;;;;;121.47;71.70;;;8.60;99.90;;;;;;5112175;27;20052;-90
2022/01/28 11:33:52;;;;;;;117.78;68.93;;;8.90;99.90;;;;;;5104637;28;20557;-88
2022/01/28 11:36:38;;;;;;;127.32;67.93;;;9.20;99.90;;;;;;5089853;28;20062;-91
2022/01/28 11:39:18;;;;;;;113.53;67.22;;;9.30;99.90;;;;;;5088828;28;20097;-87
2022/01/28 11:42:10;;;;;;;113.55;65.97;;;9.10;99.90;;;;;;5091421;28;20118;-90
2022/01/28 11:45:09;;;;;;;113.82;63.80;;;9.00;99.90;;;;;;5089134;28;20028;-88
2022/01/28 11:47:40;;;;;;;108.72;65.10;;;9.00;99.90;;;;;;5110368;28;20028;-85
2022/01/28 11:50:12;;;;;;;117.07;68.20;;;9.00;99.90;;;;;;5114180;27;20103;-87
2022/01/28 11:52:40;;;;;;;117.50;69.15;;;9.00;99.90;;;;;;5106321;28;20030;-87
2022/01/28 11:55:18;;;;;;;134.55;70.60;;;9.10;99.90;;;;;;5091167;28;20032;-89
2022/01/28 11:58:06;;;;;;;118.30;72.13;;;9.10;99.90;;;;;;5106262;28;20027;-86
2022/01/28 12:00:45;;;;;;;121.15;73.03;;;8.80;99.90;;;;;;5103752;28;20055;-86
2022/01/28 12:03:24;;;;;;;129.77;72.57;;;8.60;99.90;;;;;;5095052;28;20071;-86
2022/01/28 12:06:05;;;;;;;123.07;68.78;;;8.50;99.90;;;;;;5089776;27;20066;-86
2022/01/28 12:08:36;;;;;;;121.60;68.97;;;8.60;99.90;;;;;;5087633;28;20026;-86
2022/01/28 12:11:06;;;;;;;118.40;68.70;;;8.70;99.90;;;;;;5092521;28;20040;-88
2022/01/28 12:14:04;;;;;;;112.00;65.57;;;8.80;99.90;;;;;;5111135;27;20027;-90
2022/01/28 12:16:39;;;;;;;116.40;68.20;;;9.10;99.90;;;;;;5101013;28;20072;-86
2022/01/28 12:19:16;;;;;;;129.88;73.35;;;9.20;99.90;;;;;;5075785;28;20033;-86
2022/01/28 12:22:09;;;;;;;127.35;71.10;;;9.00;99.90;;;;;;5087533;28;20092;-86
2022/01/28 12:24:40;;;;;;;115.53;69.03;;;9.00;99.90;;;;;;5057073;28;20025;-86
2022/01/28 12:27:14;;;;;;;119.15;70.30;;;9.30;99.90;;;;;;5063438;28;20054;-87
2022/01/28 12:29:47;;;;;;;113.75;69.72;;;9.40;99.90;;;;;;5109260;28;20513;-86
2022/01/28 12:32:22;;;;;;;122.40;71.22;;;9.40;99.90;;;;;;5085120;28;20510;-86
2022/01/28 12:35:17;;;;;;;119.28;72.13;;;9.50;99.90;;;;;;5086727;28;20028;-84
2022/01/28 12:38:03;;;;;;;112.63;67.55;;;10.10;99.90;;;;;;5077228;28;20029;-84
2022/01/28 12:40:36;;;;;;;115.80;68.47;;;11.30;99.90;;;;;;5062345;28;20127;-87
2022/01/28 12:43:06;;;;;;;116.00;66.65;;;13.10;99.90;;;;;;5089770;28;20028;-87
2022/01/28 12:45:32;;;;;;;112.15;68.25;;;14.60;99.90;;;;;;5074717;28;20550;-84
2022/01/28 12:47:59;;;;;;;112.03;67.40;;;14.90;99.90;;;;;;5088104;28;20043;-85
2022/01/28 12:50:28;;;;;;;114.22;69.75;;;14.50;99.90;;;;;;5082385;28;20479;-85
2022/01/28 12:52:54;;;;;;;113.07;69.20;;;14.30;99.90;;;;;;5081208;28;20048;-84
2022/01/28 12:55:20;;;;;;;113.40;68.88;;;13.70;99.90;;;;;;5092092;28;20054;-84
2022/01/28 12:57:50;;;;;;;101.90;65.78;;;13.10;99.90;;;;;;5090722;28;20026;-83
2022/01/28 13:00:24;;;;;;;102.82;65.60;;;13.60;99.90;;;;;;5092928;27;20035;-84
2022/01/28 13:03:00;;;;;;;115.57;68.68;;;13.90;99.90;;;;;;5080213;28;20021;-84
2022/01/28 13:05:36;;;;;;;115.65;70.60;;;13.30;99.90;;;;;;5082842;28;20020;-83
2022/01/28 13:10:47;;;;;;;104.45;67.20;;;13.20;99.90;;;;;;5082631;28;20075;-85
2022/01/28 13:13:16;;;;;;;120.78;67.32;;;13.60;99.90;;;;;;5081542;28;20593;-82
2022/01/28 13:16:12;;;;;;;108.70;66.00;;;14.60;99.90;;;;;;5081979;28;20039;-83
2022/01/28 13:18:54;;;;;;;103.55;63.35;;;15.00;99.90;;;;;;5102411;28;20114;-83
2022/01/28 13:21:21;;;;;;;96.13;61.63;;;14.90;99.90;;;;;;5104204;27;20030;-82
2022/01/28 13:23:47;;;;;;;101.57;61.80;;;14.50;99.90;;;;;;5097689;28;20028;-80
2022/01/28 13:26:16;;;;;;;93.38;59.05;;;15.30;99.90;;;;;;5098976;27;20016;-83
2022/01/28 13:29:02;;;;;;;94.90;58.28;;;15.90;99.90;;;;;;5113091;27;20512;-83
2022/01/28 13:31:28;;;;;;;92.72;59.10;;;16.80;99.90;;;;;;5087335;28;20153;-83
2022/01/28 13:34:00;;;;;;;106.63;61.15;;;16.80;99.90;;;;;;5107089;28;20449;-82
2022/01/28 13:36:47;;;;;;;100.72;61.45;;;16.50;99.90;;;;;;5103566;27;20027;-83
2022/01/28 13:39:30;;;;;;;96.88;60.58;;;16.40;99.90;;;;;;5107437;28;20028;-83
2022/01/28 13:42:12;;;;;;;83.25;55.58;;;16.40;99.90;;;;;;5095703;28;20148;-81
2022/01/28 13:44:41;;;;;;;89.40;56.13;;;16.60;99.90;;;;;;5081713;28;20402;-85
2022/01/28 13:47:18;;;;;;;82.80;53.20;;;17.40;99.70;;;;;;5085589;28;20084;-84
2022/01/28 13:49:56;;;;;;;80.32;48.10;;;18.10;96.50;;;;;;5106743;28;20421;-83
2022/01/28 13:52:42;;;;;;;84.28;51.92;;;18.60;91.80;;;;;;5101298;28;20027;-84
2022/01/28 13:55:37;;;;;;;87.38;51.33;;;19.60;90.30;;;;;;5100203;28;20514;-83
2022/01/28 13:58:22;;;;;;;85.10;50.28;;;20.30;83.50;;;;;;5094438;28;20074;-83
2022/01/28 14:00:56;;;;;;;87.05;53.50;;;19.50;82.90;;;;;;5099238;28;20035;-82
2022/01/28 14:03:42;;;;;;;96.53;53.90;;;18.70;85.80;;;;;;5095160;28;20177;-82
2022/01/28 14:06:18;;;;;;;84.30;55.28;;;18.00;88.60;;;;;;5091245;28;20038;-83
2022/01/28 14:08:51;;;;;;;90.47;54.60;;;16.60;93.40;;;;;;5107652;28;20032;-84
2022/01/28 14:11:32;;;;;;;90.10;55.42;;;16.40;94.70;;;;;;5104249;28;20394;-83
2022/01/28 14:14:34;;;;;;;82.70;51.90;;;16.00;96.50;;;;;;5102045;28;20031;-82
2022/01/28 14:17:10;;;;;;;86.30;50.88;;;17.00;95.20;;;;;;5098111;28;20036;-82
2022/01/28 14:19:44;;;;;;;83.20;50.22;;;16.90;93.90;;;;;;5107633;27;20125;-83
2022/01/28 14:22:12;;;;;;;86.30;49.97;;;16.80;93.70;;;;;;5077914;28;20032;-83
2022/01/28 14:24:49;;;;;;;92.43;51.05;;;17.00;93.80;;;;;;5097217;28;20032;-82
2022/01/28 14:27:47;;;;;;;81.50;49.58;;;17.50;92.20;;;;;;5090546;28;20042;-83
2022/01/28 14:30:18;;;;;;;81.07;49.00;;;17.50;91.90;;;;;;5106298;28;20054;-82
2022/01/28 14:33:15;;;;;;;78.13;50.30;;;16.30;93.10;;;;;;5105762;28;20195;-84
2022/01/28 14:35:47;;;;;;;88.95;51.10;;;15.20;95.30;;;;;;5099265;28;20532;-83
2022/01/28 14:39:14;;;;;;;;;;;;;;;;;;;;;
2022/01/28 14:41:42;;;;;;;83.78;50.63;;;13.30;99.90;;;;;;5058975;28;20047;-87
2022/01/28 14:44:38;;;;;;;84.13;50.63;;;12.50;99.90;;;;;;5080507;28;20044;-84
2022/01/28 14:47:05;;;;;;;84.10;50.58;;;12.60;99.90;;;;;;5078537;28;20042;-85
2022/01/28 14:49:31;;;;;;;78.60;50.53;;;13.40;99.90;;;;;;5073878;28;20166;-85
2022/01/28 14:52:04;;;;;;;87.05;50.42;;;13.70;99.90;;;;;;5096140;28;20119;-86
2022/01/28 14:54:39;;;;;;;;;;;13.60;99.90;;;;;;5101417;28;20060;-85
2022/01/28 14:57:11;;;;;;;93.15;47.90;;;13.50;99.90;;;;;;5103921;28;19903;-86
2022/01/28 15:00:00;;;;;;;98.60;55.08;;;13.10;99.90;;;;;;5094383;28;20142;-84
2022/01/28 15:02:45;;;;;;;152.65;76.93;;;12.70;99.90;;;;;;5104793;28;20055;-83
2022/01/28 15:05:11;;;;;;;120.15;63.63;;;12.50;99.90;;;;;;5085093;28;20040;-84
2022/01/28 15:08:02;;;;;;;152.52;83.63;;;12.40;99.90;;;;;;5109213;28;20045;-83
2022/01/28 15:10:34;;;;;;;138.32;75.82;;;12.30;99.90;;;;;;5104497;28;20040;-84
2022/01/28 15:13:01;;;;;;;95.95;53.40;;;12.40;99.90;;;;;;5100776;28;20081;-84
2022/01/28 15:15:31;;;;;;;94.55;56.05;;;12.30;99.90;;;;;;5100416;28;20039;-84
2022/01/28 15:18:04;;;;;;;89.38;52.55;;;12.20;99.90;;;;;;5089245;28;20055;-84
2022/01/28 15:20:31;;;;;;;100.55;55.47;;;12.00;99.90;;;;;;5084638;28;20110;-85
2022/01/28 15:22:57;;;;;;;87.82;50.78;;;11.80;99.90;;;;;;5090609;28;20043;-87
2022/01/28 15:25:26;;;;;;;94.82;54.78;;;11.60;99.90;;;;;;5091720;28;20427;-84
2022/01/28 15:28:01;;;;;;;93.15;54.97;;;11.50;99.90;;;;;;5099483;28;20586;-85
2022/01/28 15:36:01;;;;;;;93.75;53.75;;;11.00;99.90;;;;;;5104695;28;20027;-84
2022/01/28 15:38:34;;;;;;;91.65;53.90;;;10.70;99.90;;;;;;5103293;27;20047;-85
2022/01/28 15:41:01;;;;;;;102.35;53.53;;;10.50;99.90;;;;;;5116890;27;20385;-83
2022/01/28 15:43:27;;;;;;;99.88;53.08;;;10.30;99.90;;;;;;5102889;27;20023;-84
2022/01/28 15:45:54;;;;;;;90.70;50.30;;;10.10;99.90;;;;;;5103674;28;20059;-84
2022/01/28 15:48:20;;;;;;;82.28;51.42;;;10.00;99.90;;;;;;5099980;27;20759;-85
2022/01/28 15:50:49;;;;;;;92.35;54.17;;;9.70;99.90;;;;;;5086018;28;20051;-84
2022/01/28 15:53:15;;;;;;;99.85;55.25;;;9.40;99.90;;;;;;5086547;28;20027;-84
2022/01/28 15:55:42;;;;;;;102.07;53.65;;;9.00;99.90;;;;;;5108652;28;20038;-83
2022/01/28 15:58:08;;;;;;;96.15;53.58;;;8.80;99.90;;;;;;5099033;28;20123;-85
2022/01/28 16:00:33;;;;;;;98.28;57.33;;;8.60;99.90;;;;;;5104806;28;20110;-84
2022/01/28 16:02:59;;;;;;;105.05;57.72;;;8.50;99.90;;;;;;5081662;28;20020;-85
2022/01/28 16:05:25;;;;;;;105.07;59.90;;;8.10;99.90;;;;;;5104159;27;20036;-84
2022/01/28 16:07:51;;;;;;;123.75;63.28;;;7.90;99.90;;;;;;5100573;28;20058;-83
2022/01/28 16:10:30;;;;;;;114.90;61.10;;;7.60;99.90;;;;;;5102207;28;20504;-83
2022/01/28 16:17:54;;;;;;;112.03;61.38;;;7.30;99.90;;;;;;5105384;28;20046;-82
2022/01/28 16:20:20;;;;;;;108.38;60.22;;;7.20;99.90;;;;;;5103262;28;20081;-82
2022/01/28 16:22:55;;;;;;;118.20;63.47;;;7.10;99.90;;;;;;5096662;28;20016;-83
2022/01/28 16:25:24;;;;;;;117.88;63.25;;;7.10;99.90;;;;;;5102284;28;20070;-82
2022/01/28 16:27:52;;;;;;;116.70;65.78;;;6.90;99.90;;;;;;5103140;28;20012;-84
2022/01/28 16:30:19;;;;;;;124.57;63.53;;;6.80;99.90;;;;;;5089446;28;20591;-83
2022/01/28 16:32:47;;;;;;;120.20;63.75;;;6.70;99.90;;;;;;5104701;28;20367;-82
2022/01/28 16:35:13;;;;;;;121.45;65.15;;;6.70;99.90;;;;;;5103491;28;20096;-84
2022/01/28 16:37:39;;;;;;;118.20;62.47;;;6.60;99.90;;;;;;5081929;28;20435;-83
2022/01/28 16:40:09;;;;;;;139.48;64.57;;;6.50;99.90;;;;;;5097730;27;20664;-84
2022/01/28 16:42:41;;;;;;;123.75;65.30;;;6.40;99.90;;;;;;5116808;27;20020;-81
2022/01/28 16:45:12;;;;;;;114.03;61.70;;;6.30;99.90;;;;;;5107210;28;20022;-82
2022/01/28 16:47:46;;;;;;;121.72;66.10;;;6.30;99.90;;;;;;5084895;28;20443;-84
2022/01/28 16:50:14;;;;;;;120.63;66.03;;;6.20;99.90;;;;;;5097314;28;20122;-83
2022/01/28 16:52:43;;;;;;;121.93;62.42;;;6.10;99.90;;;;;;5112282;27;20019;-85
2022/01/28 16:55:18;;;;;;;129.45;68.60;;;6.10;99.90;;;;;;5106987;28;20024;-84
2022/01/28 16:57:52;;;;;;;122.32;64.75;;;6.00;99.90;;;;;;5109075;27;20035;-84
2022/01/28 17:00:26;;;;;;;124.03;66.97;;;6.00;99.90;;;;;;5102355;27;20036;-82
2022/01/28 17:02:55;;;;;;;119.90;66.00;;;6.00;99.90;;;;;;5104832;27;20026;-82
2022/01/28 17:05:49;;;;;;;117.10;64.10;;;5.90;99.90;;;;;;5108242;27;20027;-84
2022/01/28 17:08:36;;;;;;;127.32;70.45;;;5.90;99.90;;;;;;5102934;28;20015;-84
2022/01/28 17:13:40;;;;;;;128.48;66.10;;;5.70;99.90;;;;;;5099952;28;20482;-84
2022/01/28 17:16:15;;;;;;;122.15;63.90;;;5.70;99.90;;;;;;5102773;28;20056;-84
2022/01/28 17:18:41;;;;;;;127.90;64.85;;;5.60;99.90;;;;;;5108043;28;20114;-85
2022/01/28 17:21:10;;;;;;;126.63;65.35;;;5.60;99.90;;;;;;5099381;28;20020;-87
2022/01/28 17:23:38;;;;;;;120.20;65.22;;;5.50;99.90;;;;;;5091441;27;20038;-87
2022/01/28 17:26:04;;;;;;;122.00;62.03;;;5.40;99.90;;;;;;5090552;28;20385;-85
2022/01/28 17:28:40;;;;;;;130.98;67.45;;;5.30;99.90;;;;;;5106587;28;20371;-86
2022/01/28 17:31:06;;;;;;;121.20;66.05;;;5.20;99.90;;;;;;5083195;27;20031;-85
2022/01/28 17:33:32;;;;;;;132.23;67.68;;;5.20;99.90;;;;;;5095920;28;20020;-85
2022/01/28 17:35:58;;;;;;;126.85;66.72;;;5.20;99.90;;;;;;5105887;28;20541;-86
2022/01/28 17:38:30;;;;;;;134.80;69.13;;;5.20;99.90;;;;;;5106089;28;20192;-86
2022/01/28 17:41:09;;;;;;;132.23;70.28;;;5.20;99.90;;;;;;5101208;28;20098;-86
2022/01/28 17:43:43;;;;;;;145.77;69.95;;;5.20;99.90;;;;;;5096819;28;20031;-85
2022/01/28 17:46:09;;;;;;;144.02;71.80;;;5.30;99.90;;;;;;5099126;28;20047;-85
2022/01/28 17:48:35;;;;;;;133.80;70.55;;;5.30;99.90;;;;;;5108316;28;20838;-85
2022/01/28 17:51:01;;;;;;;123.65;72.70;;;5.20;99.90;;;;;;5102010;28;21269;-85
2022/01/28 17:53:30;;;;;;;141.48;76.63;;;5.20;99.90;;;;;;5101285;28;20023;-86
2022/01/28 17:58:46;;;;;;;143.70;78.03;;;5.10;99.90;;;;;;5102683;28;20081;-85
2022/01/28 18:01:15;;;;;;;138.40;71.32;;;5.00;99.90;;;;;;5101785;28;20491;-85
2022/01/28 18:03:41;;;;;;;121.93;66.88;;;5.10;99.90;;;;;;5108521;27;20163;-85
2022/01/28 18:06:10;;;;;;;115.70;65.00;;;5.10;99.90;;;;;;5102687;28;20545;-86
2022/01/28 18:08:36;;;;;;;121.57;64.18;;;5.00;99.90;;;;;;5095188;28;20393;-84
2022/01/28 18:11:04;;;;;;;129.55;68.95;;;4.90;99.90;;;;;;5102427;28;20250;-85
2022/01/28 18:13:30;;;;;;;143.27;77.40;;;4.80;99.90;;;;;;5094727;28;20027;-85
2022/01/28 18:16:02;;;;;;;161.38;83.35;;;4.80;99.90;;;;;;5104267;28;20028;-86
2022/01/28 18:18:29;;;;;;;154.93;82.25;;;4.80;99.90;;;;;;5104729;28;20114;-85
2022/01/28 18:21:18;;;;;;;134.25;75.65;;;4.80;99.90;;;;;;5085917;28;20031;-84
2022/01/28 18:23:48;;;;;;;134.35;72.18;;;4.80;99.90;;;;;;5077048;28;20051;-84
2022/01/28 18:26:14;;;;;;;134.45;72.88;;;4.80;99.90;;;;;;5110067;28;20011;-83
2022/01/28 18:29:28;;;;;;;;;;;;;;;;;;;;;
2022/01/28 18:32:39;;;;;;;116.28;65.28;;;4.70;99.90;;;;;;5104122;27;20047;-89
2022/01/28 18:35:05;;;;;;;117.75;65.97;;;4.60;99.90;;;;;;5102534;28;20019;-87
2022/01/28 18:37:44;;;;;;;131.63;66.03;;;4.60;99.90;;;;;;5107490;28;20024;-84
2022/01/28 18:40:51;;;;;;;123.88;66.13;;;4.50;99.90;;;;;;5104685;28;20020;-83
2022/01/28 18:43:20;;;;;;;120.90;63.72;;;4.40;99.90;;;;;;5100294;28;20046;-82
2022/01/28 18:45:46;;;;;;;118.88;66.18;;;4.40;99.90;;;;;;5084295;28;20114;-82